sensor_id;sensor_type;location;lat;lon;timestamp;P1;durP1;ratioP1;P2;durP2;ratioP2
24751;SDS011;27246;52.376;4.628;2023-06-01T00:01:21;8.63;;;5.20;;
24751;SDS011;27246;52.376;4.628;2023-06-01T00:06:23;6.30;;;4.43;;
24751;SDS011;27246;52.376;4.628;2023-06-01T00:11:25;10.70;;;5.07;;
24751;SDS011;27246;52.376;4.628;2023-06-01T00:16:27;8.60;;;5.60;;
24751;SDS011;27246;52.376;4.628;2023-06-01T00:21:30;7.20;;;6.03;;
24751;SDS011;27246;52.376;4.628;2023-06-01T00:26:34;13.25;;;5.70;;
24751;SDS011;27246;52.376;4.628;2023-06-01T00:31:36;7.82;;;5.32;;
24751;SDS011;27246;52.376;4.628;2023-06-01T00:36:40;9.23;;;4.93;;
24751;SDS011;27246;52.376;4.628;2023-06-01T00:41:41;5.28;;;3.60;;
24751;SDS011;27246;52.376;4.628;2023-06-01T00:46:43;6.72;;;4.97;;
24751;SDS011;27246;52.376;4.628;2023-06-01T00:51:45;7.50;;;4.95;;
24751;SDS011;27246;52.376;4.628;2023-06-01T00:56:47;7.88;;;6.07;;
24751;SDS011;27246;52.376;4.628;2023-06-01T01:01:48;9.57;;;5.80;;
24751;SDS011;27246;52.376;4.628;2023-06-01T01:06:58;8.90;;;5.72;;
24751;SDS011;27246;52.376;4.628;2023-06-01T01:12:04;11.57;;;4.72;;
24751;SDS011;27246;52.376;4.628;2023-06-01T01:17:36;10.70;;;4.50;;
24751;SDS011;27246;52.376;4.628;2023-06-01T01:22:43;8.13;;;5.18;;
24751;SDS011;27246;52.376;4.628;2023-06-01T01:33:09;7.65;;;4.45;;
24751;SDS011;27246;52.376;4.628;2023-06-01T01:38:12;7.57;;;4.70;;
24751;SDS011;27246;52.376;4.628;2023-06-01T01:43:14;7.03;;;4.03;;
24751;SDS011;27246;52.376;4.628;2023-06-01T01:48:17;7.82;;;4.95;;
24751;SDS011;27246;52.376;4.628;2023-06-01T01:53:30;10.23;;;4.43;;
24751;SDS011;27246;52.376;4.628;2023-06-01T01:58:34;8.80;;;5.00;;
24751;SDS011;27246;52.376;4.628;2023-06-01T02:03:37;10.48;;;5.90;;
24751;SDS011;27246;52.376;4.628;2023-06-01T02:08:39;7.68;;;5.80;;
24751;SDS011;27246;52.376;4.628;2023-06-01T02:13:40;9.20;;;5.10;;
24751;SDS011;27246;52.376;4.628;2023-06-01T02:18:43;6.35;;;3.22;;
24751;SDS011;27246;52.376;4.628;2023-06-01T02:23:47;11.45;;;4.85;;
24751;SDS011;27246;52.376;4.628;2023-06-01T02:28:49;9.02;;;4.88;;
24751;SDS011;27246;52.376;4.628;2023-06-01T02:33:51;9.48;;;4.25;;
24751;SDS011;27246;52.376;4.628;2023-06-01T02:38:53;8.50;;;5.60;;
24751;SDS011;27246;52.376;4.628;2023-06-01T02:43:57;12.05;;;5.65;;
24751;SDS011;27246;52.376;4.628;2023-06-01T02:49:00;10.13;;;5.90;;
24751;SDS011;27246;52.376;4.628;2023-06-01T02:54:02;6.75;;;5.38;;
24751;SDS011;27246;52.376;4.628;2023-06-01T02:59:04;8.27;;;5.85;;
24751;SDS011;27246;52.376;4.628;2023-06-01T03:04:09;10.95;;;6.13;;
24751;SDS011;27246;52.376;4.628;2023-06-01T03:09:12;7.90;;;5.50;;
24751;SDS011;27246;52.376;4.628;2023-06-01T03:14:25;7.30;;;4.75;;
24751;SDS011;27246;52.376;4.628;2023-06-01T03:19:28;10.02;;;5.55;;
24751;SDS011;27246;52.376;4.628;2023-06-01T03:24:33;11.50;;;6.45;;
24751;SDS011;27246;52.376;4.628;2023-06-01T03:29:37;6.43;;;4.57;;
24751;SDS011;27246;52.376;4.628;2023-06-01T03:34:39;10.45;;;5.20;;
24751;SDS011;27246;52.376;4.628;2023-06-01T03:39:51;7.97;;;5.70;;
24751;SDS011;27246;52.376;4.628;2023-06-01T03:44:54;10.68;;;5.32;;
24751;SDS011;27246;52.376;4.628;2023-06-01T03:49:57;17.83;;;8.25;;
24751;SDS011;27246;52.376;4.628;2023-06-01T03:55:00;12.32;;;7.50;;
24751;SDS011;27246;52.376;4.628;2023-06-01T04:00:23;14.27;;;8.40;;
24751;SDS011;27246;52.376;4.628;2023-06-01T04:05:25;14.23;;;8.60;;
24751;SDS011;27246;52.376;4.628;2023-06-01T04:10:29;13.23;;;7.72;;
24751;SDS011;27246;52.376;4.628;2023-06-01T04:15:30;11.98;;;6.75;;
24751;SDS011;27246;52.376;4.628;2023-06-01T04:20:33;7.18;;;4.93;;
24751;SDS011;27246;52.376;4.628;2023-06-01T04:25:36;11.73;;;6.35;;
24751;SDS011;27246;52.376;4.628;2023-06-01T04:30:39;9.63;;;5.88;;
24751;SDS011;27246;52.376;4.628;2023-06-01T04:35:42;7.40;;;5.80;;
24751;SDS011;27246;52.376;4.628;2023-06-01T04:40:45;12.10;;;6.68;;
24751;SDS011;27246;52.376;4.628;2023-06-01T04:45:48;11.10;;;6.78;;
24751;SDS011;27246;52.376;4.628;2023-06-01T04:50:51;8.35;;;5.82;;
24751;SDS011;27246;52.376;4.628;2023-06-01T04:55:53;10.25;;;5.18;;
24751;SDS011;27246;52.376;4.628;2023-06-01T05:01:00;9.93;;;6.95;;
24751;SDS011;27246;52.376;4.628;2023-06-01T05:06:02;9.10;;;5.20;;
24751;SDS011;27246;52.376;4.628;2023-06-01T05:11:04;8.00;;;4.35;;
24751;SDS011;27246;52.376;4.628;2023-06-01T05:16:08;20.98;;;6.05;;
24751;SDS011;27246;52.376;4.628;2023-06-01T05:21:10;12.32;;;4.95;;
24751;SDS011;27246;52.376;4.628;2023-06-01T05:26:12;3.63;;;2.80;;
24751;SDS011;27246;52.376;4.628;2023-06-01T05:31:14;8.70;;;4.07;;
24751;SDS011;27246;52.376;4.628;2023-06-01T05:36:20;10.68;;;5.63;;
24751;SDS011;27246;52.376;4.628;2023-06-01T05:41:22;7.75;;;5.15;;
24751;SDS011;27246;52.376;4.628;2023-06-01T05:46:24;10.80;;;5.10;;
24751;SDS011;27246;52.376;4.628;2023-06-01T05:51:27;12.57;;;5.95;;
24751;SDS011;27246;52.376;4.628;2023-06-01T05:56:30;8.82;;;4.55;;
24751;SDS011;27246;52.376;4.628;2023-06-01T06:01:32;8.95;;;4.63;;
24751;SDS011;27246;52.376;4.628;2023-06-01T06:06:34;9.70;;;3.95;;
24751;SDS011;27246;52.376;4.628;2023-06-01T06:11:37;6.25;;;3.92;;
24751;SDS011;27246;52.376;4.628;2023-06-01T06:16:39;9.65;;;5.07;;
24751;SDS011;27246;52.376;4.628;2023-06-01T06:21:42;8.95;;;4.78;;
24751;SDS011;27246;52.376;4.628;2023-06-01T06:26:44;5.65;;;4.63;;
24751;SDS011;27246;52.376;4.628;2023-06-01T06:31:46;10.52;;;4.80;;
24751;SDS011;27246;52.376;4.628;2023-06-01T06:36:48;11.15;;;4.72;;
24751;SDS011;27246;52.376;4.628;2023-06-01T06:41:50;20.10;;;4.85;;
24751;SDS011;27246;52.376;4.628;2023-06-01T06:46:52;9.13;;;4.60;;
24751;SDS011;27246;52.376;4.628;2023-06-01T06:51:54;7.30;;;4.00;;
24751;SDS011;27246;52.376;4.628;2023-06-01T06:56:55;10.27;;;4.72;;
24751;SDS011;27246;52.376;4.628;2023-06-01T07:01:57;8.10;;;4.25;;
24751;SDS011;27246;52.376;4.628;2023-06-01T07:06:59;12.93;;;4.72;;
24751;SDS011;27246;52.376;4.628;2023-06-01T07:12:05;7.38;;;3.95;;
24751;SDS011;27246;52.376;4.628;2023-06-01T07:17:07;8.63;;;4.15;;
24751;SDS011;27246;52.376;4.628;2023-06-01T07:22:12;10.82;;;5.03;;
24751;SDS011;27246;52.376;4.628;2023-06-01T07:27:15;6.93;;;3.50;;
24751;SDS011;27246;52.376;4.628;2023-06-01T07:32:18;6.03;;;3.88;;
24751;SDS011;27246;52.376;4.628;2023-06-01T07:37:21;10.02;;;4.18;;
24751;SDS011;27246;52.376;4.628;2023-06-01T07:42:23;6.70;;;4.03;;
24751;SDS011;27246;52.376;4.628;2023-06-01T07:47:25;7.10;;;4.05;;
24751;SDS011;27246;52.376;4.628;2023-06-01T07:52:28;6.57;;;3.65;;
24751;SDS011;27246;52.376;4.628;2023-06-01T07:57:30;7.07;;;3.60;;
24751;SDS011;27246;52.376;4.628;2023-06-01T08:02:32;9.57;;;4.28;;
24751;SDS011;27246;52.376;4.628;2023-06-01T08:07:34;9.68;;;3.65;;
24751;SDS011;27246;52.376;4.628;2023-06-01T08:12:36;6.13;;;3.75;;
24751;SDS011;27246;52.376;4.628;2023-06-01T08:17:38;5.22;;;3.42;;
24751;SDS011;27246;52.376;4.628;2023-06-01T08:22:42;6.15;;;3.72;;
24751;SDS011;27246;52.376;4.628;2023-06-01T08:27:43;5.97;;;3.72;;
24751;SDS011;27246;52.376;4.628;2023-06-01T08:32:45;7.32;;;3.85;;
24751;SDS011;27246;52.376;4.628;2023-06-01T08:37:47;7.05;;;3.70;;
24751;SDS011;27246;52.376;4.628;2023-06-01T08:42:55;5.47;;;3.50;;
24751;SDS011;27246;52.376;4.628;2023-06-01T08:47:59;5.72;;;3.53;;
24751;SDS011;27246;52.376;4.628;2023-06-01T08:53:03;6.40;;;3.63;;
24751;SDS011;27246;52.376;4.628;2023-06-01T08:58:07;13.40;;;3.47;;
24751;SDS011;27246;52.376;4.628;2023-06-01T09:03:09;7.55;;;3.33;;
24751;SDS011;27246;52.376;4.628;2023-06-01T09:08:12;6.57;;;4.00;;
24751;SDS011;27246;52.376;4.628;2023-06-01T09:13:29;5.25;;;3.03;;
24751;SDS011;27246;52.376;4.628;2023-06-01T09:18:54;7.13;;;3.10;;
24751;SDS011;27246;52.376;4.628;2023-06-01T09:24:04;7.63;;;3.97;;
24751;SDS011;27246;52.376;4.628;2023-06-01T09:29:18;5.22;;;3.22;;
24751;SDS011;27246;52.376;4.628;2023-06-01T09:34:21;5.85;;;3.92;;
24751;SDS011;27246;52.376;4.628;2023-06-01T09:39:23;6.18;;;3.63;;
24751;SDS011;27246;52.376;4.628;2023-06-01T09:44:29;7.78;;;4.10;;
24751;SDS011;27246;52.376;4.628;2023-06-01T09:49:35;6.82;;;5.05;;
24751;SDS011;27246;52.376;4.628;2023-06-01T09:54:42;9.05;;;4.35;;
24751;SDS011;27246;52.376;4.628;2023-06-01T09:59:46;7.30;;;3.28;;
24751;SDS011;27246;52.376;4.628;2023-06-01T10:04:51;9.50;;;4.38;;
24751;SDS011;27246;52.376;4.628;2023-06-01T10:10:00;8.27;;;4.10;;
24751;SDS011;27246;52.376;4.628;2023-06-01T10:15:05;5.82;;;3.72;;
24751;SDS011;27246;52.376;4.628;2023-06-01T10:20:27;8.10;;;4.35;;
24751;SDS011;27246;52.376;4.628;2023-06-01T10:25:33;4.65;;;2.63;;
24751;SDS011;27246;52.376;4.628;2023-06-01T10:30:40;8.73;;;3.83;;
24751;SDS011;27246;52.376;4.628;2023-06-01T10:40:43;8.35;;;3.63;;
24751;SDS011;27246;52.376;4.628;2023-06-01T10:45:46;8.75;;;3.10;;
24751;SDS011;27246;52.376;4.628;2023-06-01T10:50:47;6.95;;;2.40;;
24751;SDS011;27246;52.376;4.628;2023-06-01T10:56:26;4.68;;;3.13;;
24751;SDS011;27246;52.376;4.628;2023-06-01T11:01:31;13.60;;;3.30;;
24751;SDS011;27246;52.376;4.628;2023-06-01T11:06:40;4.03;;;2.60;;
24751;SDS011;27246;52.376;4.628;2023-06-01T11:16:50;4.82;;;2.35;;
24751;SDS011;27246;52.376;4.628;2023-06-01T11:21:54;5.70;;;2.00;;
24751;SDS011;27246;52.376;4.628;2023-06-01T11:27:09;4.15;;;1.70;;
24751;SDS011;27246;52.376;4.628;2023-06-01T11:32:12;6.97;;;1.80;;
24751;SDS011;27246;52.376;4.628;2023-06-01T11:37:21;17.10;;;2.70;;
24751;SDS011;27246;52.376;4.628;2023-06-01T11:42:33;8.52;;;2.00;;
24751;SDS011;27246;52.376;4.628;2023-06-01T11:47:36;4.18;;;1.75;;
24751;SDS011;27246;52.376;4.628;2023-06-01T11:52:39;7.85;;;3.20;;
24751;SDS011;27246;52.376;4.628;2023-06-01T11:57:42;2.72;;;1.27;;
24751;SDS011;27246;52.376;4.628;2023-06-01T12:02:44;5.72;;;2.53;;
24751;SDS011;27246;52.376;4.628;2023-06-01T12:07:49;5.22;;;1.65;;
24751;SDS011;27246;52.376;4.628;2023-06-01T12:12:52;3.53;;;1.98;;
24751;SDS011;27246;52.376;4.628;2023-06-01T12:17:54;3.97;;;1.38;;
24751;SDS011;27246;52.376;4.628;2023-06-01T12:23:02;5.90;;;1.58;;
24751;SDS011;27246;52.376;4.628;2023-06-01T12:28:18;27.17;;;3.38;;
24751;SDS011;27246;52.376;4.628;2023-06-01T12:33:32;1.65;;;0.90;;
24751;SDS011;27246;52.376;4.628;2023-06-01T12:38:36;2.78;;;1.02;;
24751;SDS011;27246;52.376;4.628;2023-06-01T12:43:43;15.75;;;2.72;;
24751;SDS011;27246;52.376;4.628;2023-06-01T12:48:47;4.05;;;1.27;;
24751;SDS011;27246;52.376;4.628;2023-06-01T12:53:49;7.50;;;2.45;;
24751;SDS011;27246;52.376;4.628;2023-06-01T12:58:53;9.65;;;1.75;;
24751;SDS011;27246;52.376;4.628;2023-06-01T13:03:54;53.38;;;5.55;;
24751;SDS011;27246;52.376;4.628;2023-06-01T13:08:57;21.38;;;3.03;;
24751;SDS011;27246;52.376;4.628;2023-06-01T13:13:59;15.48;;;3.45;;
24751;SDS011;27246;52.376;4.628;2023-06-01T13:19:01;16.20;;;3.85;;
24751;SDS011;27246;52.376;4.628;2023-06-01T13:24:05;22.88;;;3.92;;
24751;SDS011;27246;52.376;4.628;2023-06-01T13:29:07;13.55;;;2.78;;
24751;SDS011;27246;52.376;4.628;2023-06-01T13:34:11;22.52;;;3.42;;
24751;SDS011;27246;52.376;4.628;2023-06-01T13:39:13;7.43;;;2.22;;
24751;SDS011;27246;52.376;4.628;2023-06-01T13:44:15;8.65;;;2.58;;
24751;SDS011;27246;52.376;4.628;2023-06-01T13:49:19;10.27;;;2.40;;
24751;SDS011;27246;52.376;4.628;2023-06-01T13:54:20;10.82;;;3.50;;
24751;SDS011;27246;52.376;4.628;2023-06-01T13:59:23;2.58;;;1.63;;
24751;SDS011;27246;52.376;4.628;2023-06-01T14:04:25;9.85;;;1.98;;
24751;SDS011;27246;52.376;4.628;2023-06-01T14:09:30;3.70;;;1.90;;
24751;SDS011;27246;52.376;4.628;2023-06-01T14:14:33;5.32;;;2.42;;
24751;SDS011;27246;52.376;4.628;2023-06-01T14:19:34;6.13;;;2.60;;
24751;SDS011;27246;52.376;4.628;2023-06-01T14:24:36;4.00;;;2.00;;
24751;SDS011;27246;52.376;4.628;2023-06-01T14:29:38;5.60;;;1.80;;
24751;SDS011;27246;52.376;4.628;2023-06-01T14:34:44;20.92;;;3.08;;
24751;SDS011;27246;52.376;4.628;2023-06-01T14:39:46;4.88;;;2.45;;
24751;SDS011;27246;52.376;4.628;2023-06-01T14:44:48;5.65;;;2.10;;
24751;SDS011;27246;52.376;4.628;2023-06-01T14:50:12;18.13;;;2.60;;
24751;SDS011;27246;52.376;4.628;2023-06-01T14:55:14;5.90;;;1.60;;
24751;SDS011;27246;52.376;4.628;2023-06-01T15:00:18;7.47;;;2.15;;
24751;SDS011;27246;52.376;4.628;2023-06-01T15:05:19;3.88;;;1.75;;
24751;SDS011;27246;52.376;4.628;2023-06-01T15:10:21;7.97;;;2.13;;
24751;SDS011;27246;52.376;4.628;2023-06-01T15:15:23;7.78;;;2.30;;
24751;SDS011;27246;52.376;4.628;2023-06-01T15:20:25;5.90;;;3.00;;
24751;SDS011;27246;52.376;4.628;2023-06-01T15:25:34;5.57;;;2.40;;
24751;SDS011;27246;52.376;4.628;2023-06-01T15:30:36;11.55;;;2.58;;
24751;SDS011;27246;52.376;4.628;2023-06-01T15:35:38;5.85;;;2.25;;
24751;SDS011;27246;52.376;4.628;2023-06-01T15:40:40;6.25;;;2.22;;
24751;SDS011;27246;52.376;4.628;2023-06-01T15:45:43;23.55;;;4.13;;
24751;SDS011;27246;52.376;4.628;2023-06-01T15:50:45;7.35;;;2.50;;
24751;SDS011;27246;52.376;4.628;2023-06-01T15:55:49;7.85;;;2.90;;
24751;SDS011;27246;52.376;4.628;2023-06-01T16:00:51;10.82;;;3.10;;
24751;SDS011;27246;52.376;4.628;2023-06-01T16:06:12;6.72;;;2.38;;
24751;SDS011;27246;52.376;4.628;2023-06-01T16:11:14;9.32;;;2.40;;
24751;SDS011;27246;52.376;4.628;2023-06-01T16:16:16;5.38;;;2.72;;
24751;SDS011;27246;52.376;4.628;2023-06-01T16:21:20;10.82;;;2.78;;
24751;SDS011;27246;52.376;4.628;2023-06-01T16:26:30;8.03;;;3.22;;
24751;SDS011;27246;52.376;4.628;2023-06-01T16:31:32;8.63;;;2.42;;
24751;SDS011;27246;52.376;4.628;2023-06-01T16:36:33;5.65;;;2.75;;
24751;SDS011;27246;52.376;4.628;2023-06-01T16:41:36;7.40;;;2.53;;
24751;SDS011;27246;52.376;4.628;2023-06-01T16:46:38;7.05;;;2.55;;
24751;SDS011;27246;52.376;4.628;2023-06-01T16:51:40;7.75;;;2.63;;
24751;SDS011;27246;52.376;4.628;2023-06-01T16:56:42;5.10;;;2.10;;
24751;SDS011;27246;52.376;4.628;2023-06-01T17:01:44;10.50;;;3.47;;
24751;SDS011;27246;52.376;4.628;2023-06-01T17:06:45;10.60;;;2.63;;
24751;SDS011;27246;52.376;4.628;2023-06-01T17:11:47;5.93;;;2.80;;
24751;SDS011;27246;52.376;4.628;2023-06-01T17:16:49;6.47;;;2.80;;
24751;SDS011;27246;52.376;4.628;2023-06-01T17:21:51;5.53;;;2.40;;
24751;SDS011;27246;52.376;4.628;2023-06-01T17:26:54;5.78;;;2.45;;
24751;SDS011;27246;52.376;4.628;2023-06-01T17:31:57;5.40;;;2.10;;
24751;SDS011;27246;52.376;4.628;2023-06-01T17:36:59;6.30;;;2.00;;
24751;SDS011;27246;52.376;4.628;2023-06-01T17:42:01;13.30;;;2.47;;
24751;SDS011;27246;52.376;4.628;2023-06-01T17:47:02;5.97;;;1.75;;
24751;SDS011;27246;52.376;4.628;2023-06-01T17:52:04;5.70;;;1.95;;
24751;SDS011;27246;52.376;4.628;2023-06-01T17:57:07;5.82;;;2.13;;
24751;SDS011;27246;52.376;4.628;2023-06-01T18:02:09;4.85;;;2.03;;
24751;SDS011;27246;52.376;4.628;2023-06-01T18:07:11;5.75;;;1.60;;
24751;SDS011;27246;52.376;4.628;2023-06-01T18:12:13;3.95;;;1.73;;
24751;SDS011;27246;52.376;4.628;2023-06-01T18:17:15;2.58;;;1.27;;
24751;SDS011;27246;52.376;4.628;2023-06-01T18:22:18;2.42;;;1.25;;
24751;SDS011;27246;52.376;4.628;2023-06-01T18:27:20;6.68;;;1.40;;
24751;SDS011;27246;52.376;4.628;2023-06-01T18:32:22;3.75;;;1.27;;
24751;SDS011;27246;52.376;4.628;2023-06-01T18:37:24;3.40;;;1.50;;
24751;SDS011;27246;52.376;4.628;2023-06-01T18:42:27;6.15;;;1.73;;
24751;SDS011;27246;52.376;4.628;2023-06-01T18:47:29;8.23;;;1.83;;
24751;SDS011;27246;52.376;4.628;2023-06-01T18:52:31;7.47;;;2.72;;
24751;SDS011;27246;52.376;4.628;2023-06-01T18:57:33;2.92;;;1.65;;
24751;SDS011;27246;52.376;4.628;2023-06-01T19:02:35;2.17;;;1.33;;
24751;SDS011;27246;52.376;4.628;2023-06-01T19:07:37;2.83;;;1.40;;
24751;SDS011;27246;52.376;4.628;2023-06-01T19:12:40;4.00;;;1.77;;
24751;SDS011;27246;52.376;4.628;2023-06-01T19:17:48;3.58;;;1.60;;
24751;SDS011;27246;52.376;4.628;2023-06-01T19:22:51;5.20;;;2.00;;
24751;SDS011;27246;52.376;4.628;2023-06-01T19:27:53;4.65;;;1.88;;
24751;SDS011;27246;52.376;4.628;2023-06-01T19:32:56;7.53;;;1.98;;
24751;SDS011;27246;52.376;4.628;2023-06-01T19:37:59;5.50;;;1.80;;
24751;SDS011;27246;52.376;4.628;2023-06-01T19:43:00;7.30;;;1.88;;
24751;SDS011;27246;52.376;4.628;2023-06-01T19:48:02;7.40;;;2.38;;
24751;SDS011;27246;52.376;4.628;2023-06-01T19:53:04;5.38;;;1.75;;
24751;SDS011;27246;52.376;4.628;2023-06-01T19:58:07;5.65;;;1.88;;
24751;SDS011;27246;52.376;4.628;2023-06-01T20:03:10;7.93;;;2.15;;
24751;SDS011;27246;52.376;4.628;2023-06-01T20:08:13;7.65;;;2.05;;
24751;SDS011;27246;52.376;4.628;2023-06-01T20:13:16;3.40;;;1.58;;
24751;SDS011;27246;52.376;4.628;2023-06-01T20:18:19;6.40;;;1.85;;
24751;SDS011;27246;52.376;4.628;2023-06-01T20:23:21;5.22;;;1.58;;
24751;SDS011;27246;52.376;4.628;2023-06-01T20:28:44;5.10;;;1.95;;
24751;SDS011;27246;52.376;4.628;2023-06-01T20:33:51;6.32;;;2.03;;
24751;SDS011;27246;52.376;4.628;2023-06-01T20:38:55;7.50;;;2.45;;
24751;SDS011;27246;52.376;4.628;2023-06-01T20:44:01;15.65;;;2.47;;
24751;SDS011;27246;52.376;4.628;2023-06-01T20:49:04;5.40;;;1.73;;
24751;SDS011;27246;52.376;4.628;2023-06-01T20:54:09;11.45;;;2.60;;
24751;SDS011;27246;52.376;4.628;2023-06-01T20:59:14;9.63;;;2.63;;
24751;SDS011;27246;52.376;4.628;2023-06-01T21:04:21;5.57;;;2.10;;
24751;SDS011;27246;52.376;4.628;2023-06-01T21:09:43;10.13;;;2.60;;
24751;SDS011;27246;52.376;4.628;2023-06-01T21:14:45;7.70;;;2.60;;
24751;SDS011;27246;52.376;4.628;2023-06-01T21:19:47;11.15;;;2.42;;
24751;SDS011;27246;52.376;4.628;2023-06-01T21:24:48;6.75;;;2.15;;
24751;SDS011;27246;52.376;4.628;2023-06-01T21:29:50;7.40;;;2.22;;
24751;SDS011;27246;52.376;4.628;2023-06-01T21:34:52;6.13;;;2.22;;
24751;SDS011;27246;52.376;4.628;2023-06-01T21:39:53;5.65;;;2.38;;
24751;SDS011;27246;52.376;4.628;2023-06-01T21:44:55;7.47;;;1.77;;
24751;SDS011;27246;52.376;4.628;2023-06-01T21:49:59;8.13;;;2.40;;
24751;SDS011;27246;52.376;4.628;2023-06-01T21:55:00;4.88;;;2.10;;
24751;SDS011;27246;52.376;4.628;2023-06-01T22:00:03;7.68;;;2.50;;
24751;SDS011;27246;52.376;4.628;2023-06-01T22:05:13;7.68;;;2.75;;
24751;SDS011;27246;52.376;4.628;2023-06-01T22:10:15;7.60;;;2.80;;
24751;SDS011;27246;52.376;4.628;2023-06-01T22:15:17;5.55;;;2.17;;
24751;SDS011;27246;52.376;4.628;2023-06-01T22:20:19;9.15;;;3.08;;
24751;SDS011;27246;52.376;4.628;2023-06-01T22:25:20;11.43;;;2.95;;
24751;SDS011;27246;52.376;4.628;2023-06-01T22:30:22;6.00;;;3.00;;
24751;SDS011;27246;52.376;4.628;2023-06-01T22:35:24;5.50;;;2.45;;
24751;SDS011;27246;52.376;4.628;2023-06-01T22:40:28;8.50;;;2.88;;
24751;SDS011;27246;52.376;4.628;2023-06-01T22:45:30;8.52;;;2.78;;
24751;SDS011;27246;52.376;4.628;2023-06-01T22:50:32;8.25;;;2.92;;
24751;SDS011;27246;52.376;4.628;2023-06-01T22:55:34;12.15;;;3.58;;
24751;SDS011;27246;52.376;4.628;2023-06-01T23:00:35;7.95;;;2.53;;
24751;SDS011;27246;52.376;4.628;2023-06-01T23:05:37;6.32;;;2.40;;
24751;SDS011;27246;52.376;4.628;2023-06-01T23:10:41;7.03;;;2.00;;
24751;SDS011;27246;52.376;4.628;2023-06-01T23:15:50;5.13;;;1.92;;
24751;SDS011;27246;52.376;4.628;2023-06-01T23:20:59;7.13;;;2.40;;
24751;SDS011;27246;52.376;4.628;2023-06-01T23:26:01;8.35;;;2.72;;
24751;SDS011;27246;52.376;4.628;2023-06-01T23:31:03;5.68;;;2.95;;
24751;SDS011;27246;52.376;4.628;2023-06-01T23:36:05;8.52;;;2.80;;
24751;SDS011;27246;52.376;4.628;2023-06-01T23:41:07;8.68;;;2.78;;
24751;SDS011;27246;52.376;4.628;2023-06-01T23:46:09;9.80;;;2.65;;
24751;SDS011;27246;52.376;4.628;2023-06-01T23:51:13;11.23;;;3.30;;
24751;SDS011;27246;52.376;4.628;2023-06-01T23:56:16;6.70;;;1.98;;
